»·PEaware :: WAT234 KSNA-KDEN

WAT234 :: KSNA-KDEN

FLIGHT INFORMATION

Flight Status: Arrived
Operator:
Walker Air Transport
More flights by this operator :: More flights under this callsign
Pilot: Eduardo Elias G. (24838)
Aircraft: BOEING 747-400 (WINGLETS)
(B744)
More flights by this aircraft type
Origin: KSNA John Wayne-Orange Co
United States
Destination: KDEN Denver Intl
United States
More flights between these airports :: More routes between these airports
Route: +PIGGN2 AVRRY EED J236 TBC SHNPS TBARR1
File this flight plan on PilotEdge
Remarks:
Altitude:
(Current/Filed)
35,000ft
Speed:
(Current/Filed)
500kts
Departed: 09-Aug-20 04:13 PM
Arrived: 09-Aug-20 05:58 PM
Distance/Time
Traveled:
733nm/1:45
Distance/Time
To Go:
Arrived

Flight Plot

Page will automatically refresh every two minutes.

Flight plan parsing failed; only flown route is shown


Map Options




Map Legend


Flown Route
Filed Route
Departure Airport
Arrival Airport
Navaid (VOR, NDB)
Fix

Horizontal Profiles

Position Reports

Time Latitude Longitude Heading Altitude Ground
Speed
09-Aug-20 15:44 33.673938 -117.872505 299 69ft 0kts
09-Aug-20 15:45 33.673938 -117.872505 299 69ft 0kts
09-Aug-20 15:46 33.673938 -117.872505 299 69ft 0kts
09-Aug-20 15:47 33.673938 -117.872505 299 69ft 0kts
09-Aug-20 15:48 33.673938 -117.872505 299 69ft 0kts
09-Aug-20 15:49 33.673938 -117.872505 299 69ft 0kts
09-Aug-20 15:50 33.673938 -117.872505 299 69ft 0kts
09-Aug-20 15:51 33.673938 -117.872505 299 69ft 0kts
09-Aug-20 15:52 33.673938 -117.872505 299 69ft 0kts
09-Aug-20 15:53 33.673675 -117.871918 318 69ft 2kts
09-Aug-20 15:54 33.673140 -117.871955 27 69ft 0kts
09-Aug-20 15:55 33.673140 -117.871955 27 69ft 0kts
09-Aug-20 15:56 33.673140 -117.871955 27 69ft 0kts
09-Aug-20 15:57 33.673140 -117.871955 27 69ft 0kts
09-Aug-20 15:58 33.673142 -117.871954 27 69ft 0kts
09-Aug-20 15:59 33.673143 -117.871953 27 69ft 0kts
09-Aug-20 16:00 33.673144 -117.871952 27 69ft 0kts
09-Aug-20 16:01 33.673145 -117.871952 27 69ft 0kts
09-Aug-20 16:02 33.673146 -117.871951 27 69ft 0kts
09-Aug-20 16:03 33.673148 -117.871950 27 69ft 0kts
09-Aug-20 16:04 33.673149 -117.871949 27 69ft 0kts
09-Aug-20 16:05 33.673150 -117.871949 27 69ft 0kts
09-Aug-20 16:06 33.673152 -117.871948 27 69ft 0kts
09-Aug-20 16:07 33.673153 -117.871947 27 69ft 0kts
09-Aug-20 16:08 33.673154 -117.871946 27 69ft 0kts
09-Aug-20 16:09 33.676710 -117.869763 26 69ft 27kts
09-Aug-20 16:10 33.681910 -117.866399 75 69ft 9kts
09-Aug-20 16:11 33.681417 -117.865263 196 69ft 0kts
09-Aug-20 16:12 33.656665 -117.880727 208 1151ft 182kts
09-Aug-20 16:13 33.596038 -117.896282 186 3159ft 261kts
09-Aug-20 16:14 33.528892 -117.874242 152 6409ft 269kts
09-Aug-20 16:15 33.483812 -117.801578 114 9315ft 285kts
09-Aug-20 16:16 33.481055 -117.703538 73 11634ft 323kts
09-Aug-20 16:17 33.526198 -117.603251 60 13752ft 370kts
09-Aug-20 16:18 33.576265 -117.491141 76 16391ft 393kts
09-Aug-20 16:19 33.580568 -117.351345 94 17923ft 439kts
09-Aug-20 16:20 33.584769 -117.201523 79 20125ft 463kts
09-Aug-20 16:21 33.618109 -117.048877 76 22187ft 482kts
09-Aug-20 16:22 33.627498 -116.889418 93 23514ft 508kts
09-Aug-20 16:23 33.621532 -116.716068 92 24919ft 527kts
09-Aug-20 16:24 33.617031 -116.537828 93 26228ft 542kts
09-Aug-20 16:25 33.611538 -116.354575 93 27266ft 556kts
09-Aug-20 16:26 33.606779 -116.168218 93 28494ft 561kts
09-Aug-20 16:27 33.621995 -115.982170 73 29833ft 567kts
09-Aug-20 16:28 33.678319 -115.806332 69 31286ft 567kts
09-Aug-20 16:29 33.733877 -115.628919 69 32544ft 567kts
09-Aug-20 16:30 33.831475 -115.482916 40 33594ft 563kts
09-Aug-20 16:31 33.949187 -115.359567 39 34706ft 560kts
09-Aug-20 16:32 34.066939 -115.233896 39 34860ft 572kts
09-Aug-20 16:33 34.186136 -115.105781 39 34860ft 576kts
09-Aug-20 16:34 34.305848 -114.976391 39 34865ft 574kts
09-Aug-20 16:35 34.424654 -114.847461 39 34871ft 574kts
09-Aug-20 16:36 34.543720 -114.717915 39 34867ft 576kts
09-Aug-20 16:37 34.662494 -114.587978 39 34855ft 573kts
09-Aug-20 16:38 34.774184 -114.450730 54 34863ft 575kts
09-Aug-20 16:39 34.852576 -114.279620 61 34886ft 578kts
09-Aug-20 16:40 34.927454 -114.106562 61 34938ft 578kts
09-Aug-20 16:41 35.003404 -113.934286 60 35010ft 577kts
09-Aug-20 16:42 35.078916 -113.761010 61 35078ft 576kts
09-Aug-20 16:43 35.153659 -113.588453 61 35086ft 576kts
09-Aug-20 16:44 35.228399 -113.415009 61 35094ft 576kts
09-Aug-20 16:45 35.302820 -113.241400 61 35151ft 576kts
09-Aug-20 16:46 35.377089 -113.067248 61 35218ft 576kts
09-Aug-20 16:47 35.451078 -112.892847 61 35268ft 577kts
09-Aug-20 16:48 35.524816 -112.718126 61 35295ft 577kts
09-Aug-20 16:49 35.598555 -112.542478 61 35312ft 577kts
09-Aug-20 16:50 35.671759 -112.367180 61 35321ft 577kts
09-Aug-20 16:51 35.744882 -112.191138 61 35325ft 578kts
09-Aug-20 16:52 35.817893 -112.014421 61 35328ft 578kts
09-Aug-20 16:53 35.890528 -111.837667 61 35325ft 578kts
09-Aug-20 16:54 35.962953 -111.660468 61 35310ft 578kts
09-Aug-20 16:55 36.035344 -111.483104 61 35251ft 578kts
09-Aug-20 16:56 36.107008 -111.305200 61 35227ft 577kts
09-Aug-20 16:57 36.188663 -111.134573 55 35203ft 576kts
09-Aug-20 16:58 36.273496 -110.966472 56 35187ft 576kts
09-Aug-20 16:59 36.358215 -110.798276 55 35179ft 576kts
09-Aug-20 17:00 36.442732 -110.629097 56 35170ft 577kts
09-Aug-20 17:01 36.527064 -110.459064 56 35184ft 577kts
09-Aug-20 17:03 36.610924 -110.289090 56 35200ft 577kts
09-Aug-20 17:04 36.694593 -110.118638 56 35218ft 577kts
09-Aug-20 17:05 36.777992 -109.947872 56 35236ft 577kts
09-Aug-20 17:06 36.861313 -109.776389 56 35252ft 576kts
09-Aug-20 17:07 36.943962 -109.605414 56 35261ft 576kts
09-Aug-20 17:08 37.026647 -109.433480 57 35252ft 576kts
09-Aug-20 17:09 37.108966 -109.261419 57 35258ft 576kts
09-Aug-20 17:10 37.191048 -109.088958 57 35255ft 575kts
09-Aug-20 17:11 37.272643 -108.916626 57 35248ft 574kts
09-Aug-20 17:12 37.353862 -108.744186 57 35247ft 573kts
09-Aug-20 17:13 37.434612 -108.571839 58 35247ft 571kts
09-Aug-20 17:14 37.514949 -108.399466 58 35283ft 570kts
09-Aug-20 17:15 37.594820 -108.227191 58 35347ft 568kts
09-Aug-20 17:16 37.674317 -108.054814 58 35419ft 568kts
09-Aug-20 17:17 37.751333 -107.886942 59 35475ft 518kts
09-Aug-20 17:18 37.821304 -107.733674 59 35513ft 503kts
09-Aug-20 17:19 37.891221 -107.579786 59 35497ft 504kts
09-Aug-20 17:20 37.960993 -107.425485 59 35467ft 505kts
09-Aug-20 17:21 38.030890 -107.270995 59 35483ft 504kts
09-Aug-20 17:21 38.088509 -107.141904 59 35478ft 504kts
09-Aug-20 17:23 38.174886 -106.966112 49 35434ft 502kts
09-Aug-20 17:23 38.249962 -106.853550 47 35463ft 501kts
09-Aug-20 17:24 38.339552 -106.717122 48 35510ft 502kts
09-Aug-20 17:26 38.444300 -106.557523 47 35632ft 503kts
09-Aug-20 17:26 38.519287 -106.442823 48 35756ft 504kts
09-Aug-20 17:27 38.608190 -106.305158 48 35743ft 503kts
09-Aug-20 17:28 38.698133 -106.167056 47 34737ft 506kts
09-Aug-20 17:29 38.787979 -106.029503 48 32403ft 497kts
09-Aug-20 17:30 38.874751 -105.895717 48 30388ft 481kts
09-Aug-20 17:31 38.958703 -105.765806 48 28536ft 462kts
09-Aug-20 17:32 39.038818 -105.641275 49 26750ft 444kts
09-Aug-20 17:33 39.115921 -105.520412 50 24897ft 430kts
09-Aug-20 17:34 39.190604 -105.402795 50 22985ft 417kts
09-Aug-20 17:35 39.261519 -105.289699 50 21861ft 384kts
09-Aug-20 17:36 39.336595 -105.203303 33 20744ft 353kts
09-Aug-20 17:37 39.412927 -105.133482 34 19175ft 344kts
09-Aug-20 17:38 39.489325 -105.062654 33 17580ft 335kts
09-Aug-20 17:39 39.562347 -104.995897 33 16046ft 326kts
09-Aug-20 17:40 39.635679 -104.928212 34 14461ft 319kts
09-Aug-20 17:41 39.707531 -104.861772 34 13365ft 310kts
09-Aug-20 17:42 39.787984 -104.839461 359 12420ft 295kts
09-Aug-20 17:43 39.869689 -104.839745 359 11555ft 288kts
09-Aug-20 17:44 39.949953 -104.838170 1 10998ft 288kts
09-Aug-20 17:45 40.025836 -104.834911 1 10434ft 264kts
09-Aug-20 17:46 40.098432 -104.831781 1 8835ft 254kts
09-Aug-20 17:47 40.168313 -104.828752 2 7991ft 249kts
09-Aug-20 17:48 40.237474 -104.823420 21 7957ft 248kts
09-Aug-20 17:49 40.264267 -104.751903 87 7965ft 222kts
09-Aug-20 17:50 40.219984 -104.709360 170 7711ft 222kts
09-Aug-20 17:51 40.159317 -104.701202 173 6987ft 216kts
09-Aug-20 17:52 40.099171 -104.693616 173 6981ft 216kts
09-Aug-20 17:53 40.039323 -104.686193 175 6998ft 216kts
09-Aug-20 17:54 39.982204 -104.685807 179 6995ft 209kts
09-Aug-20 17:55 39.927720 -104.686453 177 6048ft 181kts
09-Aug-20 17:56 39.880749 -104.686960 180 5444ft 111kts
09-Aug-20 17:57 39.872103 -104.685567 150 5444ft 0kts
09-Aug-20 17:58 39.872103 -104.685567 150 5444ft 0kts
09-Aug-20 17:59 39.870988 -104.684995 179 5444ft 18kts
09-Aug-20 18:00 39.861330 -104.685063 179 5444ft 33kts
09-Aug-20 18:01 39.856814 -104.681667 104 5444ft 19kts
09-Aug-20 18:02 39.856678 -104.675119 90 5444ft 16kts

Navigation Log

Ident Type
Flight plan parsing failed, navigation log unavailable